Nautilus — OUYX2 — position and weather

sailwx.info

Track history (hours):
 
Tides and Currents Weather Stations Pressure Air Temp Water Temp Dewpoint Dewpoint Depression Visibility Wind Speed Wind Dir Waves Ship Positions

Nautilus

Last reported at 2015-Jul-07 02:23 UTC. Time now 2015-Jul-07 15:24 UTC.
Position N 55°58' E 010°29'.

Length 120 m; draft 5 m.

Type: Ship. MMSI: 219425000.

Date/timePositionNaut miles runAvg speedWind from/ knotsBaromVisibWave heightAir tempDewpointWater temp
2015-Jul-07 02:23N 55°58' E 010°29'1213.9
2015-Jul-07 01:33N 56°08' E 010°18'3 2.5
2015-Jul-07 00:33N 56°09' E 010°13'0 0.0
2015-Jul-06 23:33N 56°09' E 010°13'0 0.0
2015-Jul-06 22:30N 56°09' E 010°13'0 0.0
2015-Jul-06 21:33N 56°09' E 010°13'0 0.0
2015-Jul-06 20:33N 56°09' E 010°13'0 0.0
2015-Jul-06 19:06N 56°09' E 010°13'0 0.0
2015-Jul-06 17:24N 56°09' E 010°13'0 0.0
2015-Jul-06 16:12N 56°09' E 010°13'0 0.0
2015-Jul-06 15:24N 56°09' E 010°13'0 0.0
2015-Jul-06 12:15N 56°09' E 010°13'0 0.7
2015-Jul-06 11:33N 56°09' E 010°14'9 9.1
2015-Jul-06 10:33N 56°06' E 010°29'4310.0
2015-Jul-06 06:13N 56°35' E 011°28'28 9.0
2015-Jul-06 03:04N 57°02' E 011°41'510.5
2015-Jul-06 02:33N 57°07' E 011°39'1110.5
2015-Jul-06 01:33N 57°18' E 011°38'1111.1
2015-Jul-06 00:33N 57°29' E 011°38'1111.3
2015-Jul-05 23:33N 57°39' E 011°45'5 4.5
2015-Jul-05 22:32N 57°41' E 011°52'0 0.0
2015-Jul-05 21:32N 57°41' E 011°52'0 0.0
2015-Jul-05 20:32N 57°41' E 011°52'0 0.0
2015-Jul-05 19:32N 57°41' E 011°52'0 0.0
2015-Jul-05 18:32N 57°41' E 011°52'0 0.0
2015-Jul-05 17:32N 57°41' E 011°52'0 0.0
2015-Jul-05 16:32N 57°41' E 011°52'0 0.0
2015-Jul-05 15:32N 57°41' E 011°52'0 0.0
2015-Jul-05 14:32N 57°41' E 011°52'0 0.0
2015-Jul-05 13:32N 57°41' E 011°52'0 0.0
2015-Jul-05 12:32N 57°41' E 011°52'0 0.0
2015-Jul-05 11:32N 57°41' E 011°52'0 0.0
2015-Jul-05 10:32N 57°41' E 011°52'0 0.0
2015-Jul-05 09:32N 57°41' E 011°52'0 0.0
2015-Jul-05 08:32N 57°41' E 011°52'0 0.0
2015-Jul-05 07:32N 57°41' E 011°52'0 0.0
2015-Jul-05 06:32N 57°41' E 011°52'0 0.4
2015-Jul-05 05:32N 57°41' E 011°53'0 0.0
2015-Jul-05 04:32N 57°41' E 011°53'0 0.0
2015-Jul-05 03:32N 57°41' E 011°53'0 0.0
2015-Jul-05 02:32N 57°41' E 011°53'0 0.0
2015-Jul-05 01:32N 57°41' E 011°53'0 0.0
2015-Jul-05 00:32N 57°41' E 011°53'0 0.0
2015-Jul-04 23:32N 57°41' E 011°53'0 0.0
2015-Jul-04 22:32N 57°41' E 011°53'0 0.0
2015-Jul-04 21:32N 57°41' E 011°53'0 0.0
2015-Jul-04 20:32N 57°41' E 011°53'0 0.0
2015-Jul-04 19:32N 57°41' E 011°53'0 0.0
2015-Jul-04 18:32N 57°41' E 011°53'0 0.0
2015-Jul-04 17:32N 57°41' E 011°53'0 0.0
2015-Jul-04 16:32N 57°41' E 011°53'0 0.0
2015-Jul-04 15:32N 57°41' E 011°53'0 0.0
2015-Jul-04 14:29N 57°41' E 011°53'0 0.0
2015-Jul-04 13:32N 57°41' E 011°53'0 0.0
2015-Jul-04 12:32N 57°41' E 011°53'0 0.0
2015-Jul-04 11:32N 57°41' E 011°53'0 0.0
2015-Jul-04 10:32N 57°41' E 011°53'0 0.0
2015-Jul-04 09:32N 57°41' E 011°53'0 0.0
2015-Jul-04 08:32N 57°41' E 011°53'0 0.0
2015-Jul-04 07:32N 57°41' E 011°53'0 0.0
2015-Jul-04 06:32N 57°41' E 011°53'0 0.0
2015-Jul-04 05:32N 57°41' E 011°53'0 0.0
2015-Jul-04 04:32N 57°41' E 011°53'0 0.0
2015-Jul-04 03:32N 57°41' E 011°53'0 0.0
2015-Jul-04 02:32N 57°41' E 011°53'0 0.0
2015-Jul-04 01:32N 57°41' E 011°53'0 0.0
2015-Jul-04 00:32N 57°41' E 011°53'0 0.0
2015-Jul-03 23:32N 57°41' E 011°53'0 0.0
2015-Jul-03 22:32N 57°41' E 011°53'4 3.9
2015-Jul-03 21:33N 57°40' E 011°47'1111.1
2015-Jul-03 20:33N 57°29' E 011°40'1312.7
2015-Jul-03 19:33N 57°18' E 011°50'1312.7
2015-Jul-03 18:33N 57°06' E 011°58'1212.4
2015-Jul-03 17:33N 56°54' E 012°05'1312.5
2015-Jul-03 16:33N 56°42' E 012°11'1212.3
2015-Jul-03 15:33N 56°30' E 012°18'1312.7
2015-Jul-03 14:33N 56°18' E 012°25'1413.9
2015-Jul-03 13:34N 56°05' E 012°36'1312.7
2015-Jul-03 12:33N 55°54' E 012°45'1212.2
2015-Jul-03 11:33N 55°43' E 012°53'10 9.9
2015-Jul-03 10:33N 55°33' E 012°48'1212.1
2015-Jul-03 09:33N 55°22' E 012°41'1312.7
2015-Jul-03 08:33N 55°09' E 012°41'1312.9
2015-Jul-03 07:33N 54°56' E 012°43'1211.8
2015-Jul-03 06:33N 54°45' E 012°41'1212.3
2015-Jul-03 05:33N 54°37' E 012°24'1211.5
2015-Jul-03 04:33N 54°27' E 012°14'1211.8
2015-Jul-03 03:33N 54°17' E 012°04'8 8.0
2015-Jul-03 02:33N 54°09' E 012°08'0 0.0
2015-Jul-03 01:32N 54°09' E 012°08'0 0.0
2015-Jul-03 00:30N 54°09' E 012°08'0 0.0
2015-Jul-02 23:32N 54°09' E 012°08'0 0.0
2015-Jul-02 22:32N 54°09' E 012°08'0 0.0
2015-Jul-02 21:33N 54°09' E 012°08'0 0.0
2015-Jul-02 20:33N 54°09' E 012°08'0 0.0
2015-Jul-02 18:32N 54°09' E 012°08'0 0.0
2015-Jul-02 17:33N 54°09' E 012°08'0 0.0
2015-Jul-02 16:30N 54°09' E 012°08'0 0.0
2015-Jul-02 15:27N 54°09' E 012°08'0 0.0
2015-Jul-02 14:27N 54°09' E 012°08'0 0.0
2015-Jul-02 13:32N 54°09' E 012°08'0 0.0
2015-Jul-02 12:32N 54°09' E 012°08'0 0.0
2015-Jul-02 11:33N 54°09' E 012°08'0 0.0
2015-Jul-02 10:23N 54°09' E 012°08'0 0.0
2015-Jul-02 09:30N 54°09' E 012°08'0 0.0
2015-Jul-02 08:33N 54°09' E 012°08'0 0.0
2015-Jul-02 07:33N 54°09' E 012°08'0 0.0
2015-Jul-02 06:32N 54°09' E 012°08'0 0.0
2015-Jul-02 05:32N 54°09' E 012°08'0 0.0
2015-Jul-02 04:33N 54°09' E 012°08'0 0.0
2015-Jul-02 03:32N 54°09' E 012°08'1 1.4
2015-Jul-02 02:33N 54°10' E 012°06'1111.2
2015-Jul-02 01:34N 54°21' E 011°60'1211.5
2015-Jul-02 00:33N 54°30' E 012°12'1413.7
2015-Jul-01 23:33N 54°41' E 012°26'1414.4
2015-Jul-01 22:33N 54°48' E 012°47'1414.3
2015-Jul-01 21:33N 54°53' E 013°11'1414.4
2015-Jul-01 20:33N 54°57' E 013°35'1514.4
2015-Jul-01 19:33N 55°02' E 013°59'1413.8
2015-Jul-01 18:33N 55°11' E 014°16'1414.3
2015-Jul-01 17:33N 55°23' E 014°32'1413.9
2015-Jul-01 16:33N 55°30' E 014°52'1414.3
2015-Jul-01 15:33N 55°36' E 015°15'1414.2
2015-Jul-01 14:33N 55°43' E 015°37'1414.2
2015-Jul-01 13:33N 55°51' E 015°59'1514.3
2015-Jul-01 12:32N 55°59' E 016°20'1414.4
2015-Jul-01 11:32N 56°07' E 016°42'1414.0
2015-Jul-01 10:32N 56°19' E 016°53'5814.3
2015-Jul-01 06:29N 57°13' E 017°31'1414.2
2015-Jul-01 05:31N 57°26' E 017°41'1313.9
2015-Jul-01 04:33N 57°39' E 017°45'22 0.6
2015-Jun-29 13:33N 57°17' E 017°39'12512.2
2015-Jun-29 03:20N 55°38' E 015°23'1013.4
2015-Jun-29 02:33N 55°33' E 015°06'1313.2
2015-Jun-29 01:33N 55°27' E 014°46'1313.1
2015-Jun-29 00:33N 55°18' E 014°29'1212.0
2015-Jun-28 23:33N 55°11' E 014°12'1312.9
2015-Jun-28 22:33N 55°11' E 013°49'1313.0
2015-Jun-28 21:33N 55°11' E 013°27'1313.3
2015-Jun-28 20:33N 55°12' E 013°03'1313.1
2015-Jun-28 19:33N 55°17' E 012°42'1110.9
2015-Jun-28 18:33N 55°28' E 012°41'1110.7
2015-Jun-28 17:33N 55°36' E 012°53'1010.2
2015-Jun-28 16:33N 55°46' E 012°48'1111.4
2015-Jun-28 15:33N 55°57' E 012°39'1110.9
2015-Jun-28 14:33N 56°07' E 012°32'1212.1
2015-Jun-28 13:33N 56°17' E 012°22'1312.9
2015-Jun-28 12:33N 56°30' E 012°16'1312.9
2015-Jun-28 11:33N 56°42' E 012°10'1312.7
2015-Jun-28 10:33N 56°55' E 012°04'1212.2
2015-Jun-28 09:33N 57°06' E 011°57'1212.2
2015-Jun-28 08:33N 57°18' E 011°49'1312.6
2015-Jun-28 07:33N 57°29' E 011°39'1110.9
2015-Jun-28 06:33N 57°39' E 011°45'5 4.5
2015-Jun-28 05:33N 57°41' E 011°53'0 0.0
2015-Jun-28 04:33N 57°41' E 011°53'0 0.0
2015-Jun-28 03:33N 57°41' E 011°53'0 0.0
2015-Jun-28 02:33N 57°41' E 011°53'0 0.0
2015-Jun-28 01:33N 57°41' E 011°53'0 0.0
2015-Jun-28 00:33N 57°41' E 011°53'0 0.0
2015-Jun-27 23:33N 57°41' E 011°53'0 0.0
2015-Jun-27 22:33N 57°41' E 011°53'0 0.0
2015-Jun-27 21:33N 57°41' E 011°53'0 0.0
2015-Jun-27 20:27N 57°41' E 011°53'0 0.0
2015-Jun-27 19:30N 57°41' E 011°53'0 0.0
2015-Jun-27 18:33N 57°41' E 011°53'0 0.0
2015-Jun-27 17:30N 57°41' E 011°53'0 0.0
2015-Jun-27 16:33N 57°41' E 011°53'0 0.0
2015-Jun-27 15:30N 57°41' E 011°53'0 0.0
2015-Jun-27 14:33N 57°41' E 011°53'0 0.1
2015-Jun-27 13:33N 57°41' E 011°53'0 0.0
2015-Jun-27 12:33N 57°41' E 011°53'0 0.0
2015-Jun-27 11:33N 57°41' E 011°53'0 0.0
2015-Jun-27 10:33N 57°41' E 011°53'0 0.0
2015-Jun-27 09:30N 57°41' E 011°53'0 0.0
2015-Jun-27 08:33N 57°41' E 011°53'0 0.0
2015-Jun-27 07:33N 57°41' E 011°53'0 0.0
2015-Jun-27 06:33N 57°41' E 011°53'0 0.0
2015-Jun-27 05:33N 57°41' E 011°53'0 0.0
2015-Jun-27 04:27N 57°41' E 011°53'0 0.0
2015-Jun-27 03:33N 57°41' E 011°53'0 0.0
2015-Jun-27 02:33N 57°41' E 011°53'  
Track history (hours):
 
Tides and Currents Weather Stations Pressure Air Temp Water Temp Dewpoint Dewpoint Depression Visibility Wind Speed Wind Dir Waves Ship Positions

Nautilus

Last reported at 2015-Jul-07 02:23 UTC. Time now 2015-Jul-07 15:24 UTC.
Position N 55°58' E 010°29'.

Length 120 m; draft 5 m.

Type: Ship. MMSI: 219425000.

Date/timePositionNaut miles runAvg speedWind from/ knotsBaromVisibWave heightAir tempDewpointWater temp
2015-Jul-07 02:23N 55°58' E 010°29'1213.9
2015-Jul-07 01:33N 56°08' E 010°18'3 2.5
2015-Jul-07 00:33N 56°09' E 010°13'0 0.0
2015-Jul-06 23:33N 56°09' E 010°13'0 0.0
2015-Jul-06 22:30N 56°09' E 010°13'0 0.0
2015-Jul-06 21:33N 56°09' E 010°13'0 0.0
2015-Jul-06 20:33N 56°09' E 010°13'0 0.0
2015-Jul-06 19:06N 56°09' E 010°13'0 0.0
2015-Jul-06 17:24N 56°09' E 010°13'0 0.0
2015-Jul-06 16:12N 56°09' E 010°13'0 0.0
2015-Jul-06 15:24N 56°09' E 010°13'0 0.0
2015-Jul-06 12:15N 56°09' E 010°13'0 0.7
2015-Jul-06 11:33N 56°09' E 010°14'9 9.1
2015-Jul-06 10:33N 56°06' E 010°29'4310.0
2015-Jul-06 06:13N 56°35' E 011°28'28 9.0
2015-Jul-06 03:04N 57°02' E 011°41'510.5
2015-Jul-06 02:33N 57°07' E 011°39'1110.5
2015-Jul-06 01:33N 57°18' E 011°38'1111.1
2015-Jul-06 00:33N 57°29' E 011°38'1111.3
2015-Jul-05 23:33N 57°39' E 011°45'5 4.5
2015-Jul-05 22:32N 57°41' E 011°52'0 0.0
2015-Jul-05 21:32N 57°41' E 011°52'0 0.0
2015-Jul-05 20:32N 57°41' E 011°52'0 0.0
2015-Jul-05 19:32N 57°41' E 011°52'0 0.0
2015-Jul-05 18:32N 57°41' E 011°52'0 0.0
2015-Jul-05 17:32N 57°41' E 011°52'0 0.0
2015-Jul-05 16:32N 57°41' E 011°52'0 0.0
2015-Jul-05 15:32N 57°41' E 011°52'0 0.0
2015-Jul-05 14:32N 57°41' E 011°52'0 0.0
2015-Jul-05 13:32N 57°41' E 011°52'0 0.0
2015-Jul-05 12:32N 57°41' E 011°52'0 0.0
2015-Jul-05 11:32N 57°41' E 011°52'0 0.0
2015-Jul-05 10:32N 57°41' E 011°52'0 0.0
2015-Jul-05 09:32N 57°41' E 011°52'0 0.0
2015-Jul-05 08:32N 57°41' E 011°52'0 0.0
2015-Jul-05 07:32N 57°41' E 011°52'0 0.0
2015-Jul-05 06:32N 57°41' E 011°52'0 0.4
2015-Jul-05 05:32N 57°41' E 011°53'0 0.0
2015-Jul-05 04:32N 57°41' E 011°53'0 0.0
2015-Jul-05 03:32N 57°41' E 011°53'0 0.0
2015-Jul-05 02:32N 57°41' E 011°53'0 0.0
2015-Jul-05 01:32N 57°41' E 011°53'0 0.0
2015-Jul-05 00:32N 57°41' E 011°53'0 0.0
2015-Jul-04 23:32N 57°41' E 011°53'0 0.0
2015-Jul-04 22:32N 57°41' E 011°53'0 0.0
2015-Jul-04 21:32N 57°41' E 011°53'0 0.0
2015-Jul-04 20:32N 57°41' E 011°53'0 0.0
2015-Jul-04 19:32N 57°41' E 011°53'0 0.0
2015-Jul-04 18:32N 57°41' E 011°53'0 0.0
2015-Jul-04 17:32N 57°41' E 011°53'0 0.0
2015-Jul-04 16:32N 57°41' E 011°53'0 0.0
2015-Jul-04 15:32N 57°41' E 011°53'0 0.0
2015-Jul-04 14:29N 57°41' E 011°53'0 0.0
2015-Jul-04 13:32N 57°41' E 011°53'0 0.0
2015-Jul-04 12:32N 57°41' E 011°53'0 0.0
2015-Jul-04 11:32N 57°41' E 011°53'0 0.0
2015-Jul-04 10:32N 57°41' E 011°53'0 0.0
2015-Jul-04 09:32N 57°41' E 011°53'0 0.0
2015-Jul-04 08:32N 57°41' E 011°53'0 0.0
2015-Jul-04 07:32N 57°41' E 011°53'0 0.0
2015-Jul-04 06:32N 57°41' E 011°53'0 0.0
2015-Jul-04 05:32N 57°41' E 011°53'0 0.0
2015-Jul-04 04:32N 57°41' E 011°53'0 0.0
2015-Jul-04 03:32N 57°41' E 011°53'0 0.0
2015-Jul-04 02:32N 57°41' E 011°53'0 0.0
2015-Jul-04 01:32N 57°41' E 011°53'0 0.0
2015-Jul-04 00:32N 57°41' E 011°53'0 0.0
2015-Jul-03 23:32N 57°41' E 011°53'0 0.0
2015-Jul-03 22:32N 57°41' E 011°53'4 3.9
2015-Jul-03 21:33N 57°40' E 011°47'1111.1
2015-Jul-03 20:33N 57°29' E 011°40'1312.7
2015-Jul-03 19:33N 57°18' E 011°50'1312.7
2015-Jul-03 18:33N 57°06' E 011°58'1212.4
2015-Jul-03 17:33N 56°54' E 012°05'1312.5
2015-Jul-03 16:33N 56°42' E 012°11'1212.3
2015-Jul-03 15:33N 56°30' E 012°18'1312.7
2015-Jul-03 14:33N 56°18' E 012°25'1413.9
2015-Jul-03 13:34N 56°05' E 012°36'1312.7
2015-Jul-03 12:33N 55°54' E 012°45'1212.2
2015-Jul-03 11:33N 55°43' E 012°53'10 9.9
2015-Jul-03 10:33N 55°33' E 012°48'1212.1
2015-Jul-03 09:33N 55°22' E 012°41'1312.7
2015-Jul-03 08:33N 55°09' E 012°41'1312.9
2015-Jul-03 07:33N 54°56' E 012°43'1211.8
2015-Jul-03 06:33N 54°45' E 012°41'1212.3
2015-Jul-03 05:33N 54°37' E 012°24'1211.5
2015-Jul-03 04:33N 54°27' E 012°14'1211.8
2015-Jul-03 03:33N 54°17' E 012°04'8 8.0
2015-Jul-03 02:33N 54°09' E 012°08'0 0.0
2015-Jul-03 01:32N 54°09' E 012°08'0 0.0
2015-Jul-03 00:30N 54°09' E 012°08'0 0.0
2015-Jul-02 23:32N 54°09' E 012°08'0 0.0
2015-Jul-02 22:32N 54°09' E 012°08'0 0.0
2015-Jul-02 21:33N 54°09' E 012°08'0 0.0
2015-Jul-02 20:33N 54°09' E 012°08'0 0.0
2015-Jul-02 18:32N 54°09' E 012°08'0 0.0
2015-Jul-02 17:33N 54°09' E 012°08'0 0.0
2015-Jul-02 16:30N 54°09' E 012°08'0 0.0
2015-Jul-02 15:27N 54°09' E 012°08'0 0.0
2015-Jul-02 14:27N 54°09' E 012°08'0 0.0
2015-Jul-02 13:32N 54°09' E 012°08'0 0.0
2015-Jul-02 12:32N 54°09' E 012°08'0 0.0
2015-Jul-02 11:33N 54°09' E 012°08'0 0.0
2015-Jul-02 10:23N 54°09' E 012°08'0 0.0
2015-Jul-02 09:30N 54°09' E 012°08'0 0.0
2015-Jul-02 08:33N 54°09' E 012°08'0 0.0
2015-Jul-02 07:33N 54°09' E 012°08'0 0.0
2015-Jul-02 06:32N 54°09' E 012°08'0 0.0
2015-Jul-02 05:32N 54°09' E 012°08'0 0.0
2015-Jul-02 04:33N 54°09' E 012°08'0 0.0
2015-Jul-02 03:32N 54°09' E 012°08'1 1.4
2015-Jul-02 02:33N 54°10' E 012°06'1111.2
2015-Jul-02 01:34N 54°21' E 011°60'1211.5
2015-Jul-02 00:33N 54°30' E 012°12'1413.7
2015-Jul-01 23:33N 54°41' E 012°26'1414.4
2015-Jul-01 22:33N 54°48' E 012°47'1414.3
2015-Jul-01 21:33N 54°53' E 013°11'1414.4
2015-Jul-01 20:33N 54°57' E 013°35'1514.4
2015-Jul-01 19:33N 55°02' E 013°59'1413.8
2015-Jul-01 18:33N 55°11' E 014°16'1414.3
2015-Jul-01 17:33N 55°23' E 014°32'1413.9
2015-Jul-01 16:33N 55°30' E 014°52'1414.3
2015-Jul-01 15:33N 55°36' E 015°15'1414.2
2015-Jul-01 14:33N 55°43' E 015°37'1414.2
2015-Jul-01 13:33N 55°51' E 015°59'1514.3
2015-Jul-01 12:32N 55°59' E 016°20'1414.4
2015-Jul-01 11:32N 56°07' E 016°42'1414.0
2015-Jul-01 10:32N 56°19' E 016°53'5814.3
2015-Jul-01 06:29N 57°13' E 017°31'1414.2
2015-Jul-01 05:31N 57°26' E 017°41'1313.9
2015-Jul-01 04:33N 57°39' E 017°45'22 0.6
2015-Jun-29 13:33N 57°17' E 017°39'12512.2
2015-Jun-29 03:20N 55°38' E 015°23'1013.4
2015-Jun-29 02:33N 55°33' E 015°06'1313.2
2015-Jun-29 01:33N 55°27' E 014°46'1313.1
2015-Jun-29 00:33N 55°18' E 014°29'1212.0
2015-Jun-28 23:33N 55°11' E 014°12'1312.9
2015-Jun-28 22:33N 55°11' E 013°49'1313.0
2015-Jun-28 21:33N 55°11' E 013°27'1313.3
2015-Jun-28 20:33N 55°12' E 013°03'1313.1
2015-Jun-28 19:33N 55°17' E 012°42'1110.9
2015-Jun-28 18:33N 55°28' E 012°41'1110.7
2015-Jun-28 17:33N 55°36' E 012°53'1010.2
2015-Jun-28 16:33N 55°46' E 012°48'1111.4
2015-Jun-28 15:33N 55°57' E 012°39'1110.9
2015-Jun-28 14:33N 56°07' E 012°32'1212.1
2015-Jun-28 13:33N 56°17' E 012°22'1312.9
2015-Jun-28 12:33N 56°30' E 012°16'1312.9
2015-Jun-28 11:33N 56°42' E 012°10'1312.7
2015-Jun-28 10:33N 56°55' E 012°04'1212.2
2015-Jun-28 09:33N 57°06' E 011°57'1212.2
2015-Jun-28 08:33N 57°18' E 011°49'1312.6
2015-Jun-28 07:33N 57°29' E 011°39'1110.9
2015-Jun-28 06:33N 57°39' E 011°45'5 4.5
2015-Jun-28 05:33N 57°41' E 011°53'0 0.0
2015-Jun-28 04:33N 57°41' E 011°53'0 0.0
2015-Jun-28 03:33N 57°41' E 011°53'0 0.0
2015-Jun-28 02:33N 57°41' E 011°53'0 0.0
2015-Jun-28 01:33N 57°41' E 011°53'0 0.0
2015-Jun-28 00:33N 57°41' E 011°53'0 0.0
2015-Jun-27 23:33N 57°41' E 011°53'0 0.0
2015-Jun-27 22:33N 57°41' E 011°53'0 0.0
2015-Jun-27 21:33N 57°41' E 011°53'0 0.0
2015-Jun-27 20:27N 57°41' E 011°53'0 0.0
2015-Jun-27 19:30N 57°41' E 011°53'0 0.0
2015-Jun-27 18:33N 57°41' E 011°53'0 0.0
2015-Jun-27 17:30N 57°41' E 011°53'0 0.0
2015-Jun-27 16:33N 57°41' E 011°53'0 0.0
2015-Jun-27 15:30N 57°41' E 011°53'0 0.0
2015-Jun-27 14:33N 57°41' E 011°53'0 0.1
2015-Jun-27 13:33N 57°41' E 011°53'0 0.0
2015-Jun-27 12:33N 57°41' E 011°53'0 0.0
2015-Jun-27 11:33N 57°41' E 011°53'0 0.0
2015-Jun-27 10:33N 57°41' E 011°53'0 0.0
2015-Jun-27 09:30N 57°41' E 011°53'0 0.0
2015-Jun-27 08:33N 57°41' E 011°53'0 0.0
2015-Jun-27 07:33N 57°41' E 011°53'0 0.0
2015-Jun-27 06:33N 57°41' E 011°53'0 0.0
2015-Jun-27 05:33N 57°41' E 011°53'0 0.0
2015-Jun-27 04:27N 57°41' E 011°53'0 0.0
2015-Jun-27 03:33N 57°41' E 011°53'0 0.0
2015-Jun-27 02:33N 57°41' E 011°53'  

Dump ship's entire track history